Time;durP1;ratioP1;P1;durP2;ratioP2;P2;SDS_P1;SDS_P2;PMS_P1;PMS_P2;Temp;Humidity;BMP_temperature;BMP_pressure;BME280_temperature;BME280_humidity;BME280_pressure;Samples;Min_cycle;Max_cycle;Signal;HPM_P1;HPM_P2
2023/06/04 13:12:14;;;;;;;;;;;;;;;;;;4972041;26;19922;-88
2023/06/04 13:14:40;;;;;;;;;;;;;;;;;;4993175;28;19917;-89
2023/06/04 13:17:05;;;;;;;;;;;;;;;;;;4998004;28;19914;-88
2023/06/04 13:19:30;;;;;;;;;;;;;;;;;;4997991;28;19913;-89
2023/06/04 13:21:57;;;;;;;;;;;;;;;;;;5015523;28;19914;-88
2023/06/04 13:24:22;;;;;;;;;;;;;;;;;;5015378;28;19958;-88
2023/06/04 13:26:47;;;;;;;;;;;;;;;;;;5015191;28;19921;-88
2023/06/04 13:29:14;;;;;;;;;;;;;;;;;;4997727;28;20307;-88
2023/06/04 16:11:09;;;;;;;;;;;;;;;;;;5013941;28;20004;-90
2023/06/04 16:13:35;;;;;;;;;;;;;;;;;;5017179;28;19917;-91
2023/06/04 16:16:00;;;;;;;;;;;;;;;;;;5017409;28;19914;-90
2023/06/04 16:18:26;;;;;;;;;;;;;;;;;;5016912;28;19913;-90
2023/06/04 16:20:51;;;;;;;;;;;;;;;;;;4999424;28;20348;-89
2023/06/04 16:23:17;;;;;;;;;;;;;;;;;;5017053;28;19917;-88
2023/06/04 16:25:42;;;;;;;;;;;;;;;;;;5016679;28;19913;-88
2023/06/04 16:28:07;;;;;;;;;;;;;;;;;;4998706;28;19921;-88
2023/06/04 16:30:33;;;;;;;;;;;;;;;;;;5016446;28;19921;-89
2023/06/04 16:32:58;;;;;;;;;;;;;;;;;;5016775;28;19917;-90
2023/06/04 16:35:24;;;;;;;;;;;;;;;;;;5016567;28;19914;-90
2023/06/04 16:37:50;;;;;;;;;;;;;;;;;;5016107;28;19976;-88
2023/06/04 16:40:15;;;;;;;;;;;;;;;;;;5016501;28;20356;-89
2023/06/04 16:42:40;;;;;;;;;;;;;;;;;;4998515;28;19914;-89
2023/06/04 16:45:06;;;;;;;;;;;;;;;;;;4998812;28;19963;-87
2023/06/04 16:47:32;;;;;;;;;;;;;;;;;;4998350;28;19913;-88
2023/06/04 16:49:58;;;;;;;;;;;;;;;;;;5015787;28;20279;-94
2023/06/04 16:52:23;;;;;;;;;;;;;;;;;;4999187;28;19913;-90
2023/06/04 16:54:49;;;;;;;;;;;;;;;;;;4999345;28;19913;-91
2023/06/04 16:57:14;;;;;;;;;;;;;;;;;;5016474;28;20360;-90
2023/06/04 16:59:45;;;;;;;;;;;;;;;;;;4999799;28;19980;-90
2023/06/04 17:02:11;;;;;;;;;;;;;;;;;;5016604;28;20280;-91
2023/06/04 17:04:37;;;;;;;;;;;;;;;;;;5016308;28;19920;-89
2023/06/04 17:07:04;;;;;;;;;;;;;;;;;;5001311;28;19975;-89
2023/06/04 17:09:29;;;;;;;;;;;;;;;;;;5017599;28;20283;-93
2023/06/04 17:11:55;;;;;;;;;;;;;;;;;;4999721;28;20000;-91
2023/06/04 17:14:20;;;;;;;;;;;;;;;;;;5016410;28;19917;-93
2023/06/04 17:16:45;;;;;;;;;;;;;;;;;;4999085;28;19916;-92
2023/06/04 17:19:11;;;;;;;;;;;;;;;;;;5016099;28;20067;-91
2023/06/04 17:21:37;;;;;;;;;;;;;;;;;;5016414;28;19909;-91
2023/06/04 17:24:03;;;;;;;;;;;;;;;;;;5015946;28;19920;-89
2023/06/04 17:26:28;;;;;;;;;;;;;;;;;;4998547;28;19914;-91
2023/06/04 17:28:54;;;;;;;;;;;;;;;;;;4998324;28;19917;-92
2023/06/04 17:31:22;;;;;;;;;;;;;;;;;;5015631;28;19913;-90
2023/06/04 17:33:47;;;;;;;;;;;;;;;;;;4999740;28;19977;-92
2023/06/04 17:36:13;;;;;;;;;;;;;;;;;;5015967;28;19921;-90
2023/06/04 17:38:38;;;;;;;;;;;;;;;;;;5018101;28;19921;-91
2023/06/04 17:41:04;;;;;;;;;;;;;;;;;;5015838;28;19920;-90
2023/06/04 17:43:29;;;;;;;;;;;;;;;;;;5017998;28;19913;-90
2023/06/04 17:45:55;;;;;;;;;;;;;;;;;;5001392;28;19925;-90
2023/06/04 17:48:20;;;;;;;;;;;;;;;;;;5025381;28;19921;-92
2023/06/04 17:50:45;;;;;;;;;;;;;;;;;;4996322;28;20363;-90
2023/06/04 17:53:10;;;;;;;;;;;;;;;;;;4998153;28;19910;-91
2023/06/04 17:55:36;;;;;;;;;;;;;;;;;;5000007;28;19914;-91
2023/06/04 17:58:01;;;;;;;;;;;;;;;;;;5000261;28;19913;-91
2023/06/04 18:00:28;;;;;;;;;;;;;;;;;;5030261;28;19909;-92
2023/06/04 18:02:53;;;;;;;;;;;;;;;;;;5030207;28;19917;-90
2023/06/04 18:05:18;;;;;;;;;;;;;;;;;;5027920;28;19972;-92
2023/06/04 18:07:45;;;;;;;;;;;;;;;;;;4995247;28;19925;-89
2023/06/04 18:10:10;;;;;;;;;;;;;;;;;;5015716;28;20019;-91
2023/06/04 18:12:36;;;;;;;;;;;;;;;;;;4995615;28;19953;-91
2023/06/04 18:15:01;;;;;;;;;;;;;;;;;;4995057;28;19920;-92
2023/06/04 18:17:27;;;;;;;;;;;;;;;;;;5023969;28;19964;-93
2023/06/04 18:19:52;;;;;;;;;;;;;;;;;;5016467;28;20415;-90
2023/06/04 18:22:17;;;;;;;;;;;;;;;;;;4995538;28;19979;-92
2023/06/04 18:24:43;;;;;;;;;;;;;;;;;;5024395;28;19913;-92
2023/06/04 18:27:08;;;;;;;;;;;;;;;;;;4996173;28;19917;-92
2023/06/04 18:29:34;;;;;;;;;;;;;;;;;;4995837;28;19913;-92
2023/06/04 18:32:01;;;;;;;;;;;;;;;;;;5013125;28;19917;-93
2023/06/04 18:34:28;;;;;;;;;;;;;;;;;;5000632;28;19996;-92
2023/06/04 18:36:53;;;;;;;;;;;;;;;;;;5000759;28;19913;-96
2023/06/04 18:39:24;;;;;;;;;;;;;;;;;;5005693;28;19967;-96
2023/06/04 18:41:52;;;;;;;;;;;;;;;;;;5005280;28;19940;-96
2023/06/04 18:44:17;;;;;;;;;;;;;;;;;;5004821;28;19913;-96
2023/06/04 18:46:43;;;;;;;;;;;;;;;;;;5006745;28;19920;-96
2023/06/04 18:49:11;;;;;;;;;;;;;;;;;;5003231;28;19917;-96
2023/06/04 18:51:37;;;;;;;;;;;;;;;;;;5007074;28;19913;-96
2023/06/04 18:54:03;;;;;;;;;;;;;;;;;;5000352;28;19976;-96
2023/06/04 18:56:28;;;;;;;;;;;;;;;;;;4999929;28;19972;-95
2023/06/04 18:58:57;;;;;;;;;;;;;;;;;;4999483;28;19920;-94
2023/06/04 19:01:25;;;;;;;;;;;;;;;;;;5021424;28;19922;-96
2023/06/04 19:03:51;;;;;;;;;;;;;;;;;;5005026;28;19913;-94
2023/06/04 19:06:16;;;;;;;;;;;;;;;;;;4998848;28;20360;-94
2023/06/04 19:08:43;;;;;;;;;;;;;;;;;;5001626;28;19924;-95
2023/06/04 19:11:08;;;;;;;;;;;;;;;;;;5001906;28;20008;-92
2023/06/04 19:13:34;;;;;;;;;;;;;;;;;;5001890;28;20068;-96
2023/06/04 19:15:59;;;;;;;;;;;;;;;;;;5021567;28;19925;-96
2023/06/04 19:18:25;;;;;;;;;;;;;;;;;;5002851;28;19917;-92
2023/06/04 19:20:50;;;;;;;;;;;;;;;;;;5018750;28;19921;-92
2023/06/04 19:23:15;;;;;;;;;;;;;;;;;;5030482;28;19975;-93
2023/06/04 19:25:41;;;;;;;;;;;;;;;;;;5000010;28;20012;-91
2023/06/04 19:28:06;;;;;;;;;;;;;;;;;;5027596;28;19917;-93
2023/06/04 19:30:32;;;;;;;;;;;;;;;;;;5020198;28;20391;-92
2023/06/04 19:32:57;;;;;;;;;;;;;;;;;;5031175;28;19909;-92
2023/06/04 19:35:23;;;;;;;;;;;;;;;;;;5017617;28;19913;-88
2023/06/04 19:37:48;;;;;;;;;;;;;;;;;;5025672;28;20015;-92
2023/06/04 19:40:16;;;;;;;;;;;;;;;;;;4999888;28;19910;-92
2023/06/04 19:42:42;;;;;;;;;;;;;;;;;;5018090;28;19913;-91
2023/06/04 19:45:07;;;;;;;;;;;;;;;;;;5000595;28;19920;-90
2023/06/04 19:47:33;;;;;;;;;;;;;;;;;;5018115;28;19920;-90
2023/06/04 19:49:58;;;;;;;;;;;;;;;;;;5017710;28;19917;-88
2023/06/04 19:52:24;;;;;;;;;;;;;;;;;;5000071;28;20272;-89
2023/06/04 19:54:50;;;;;;;;;;;;;;;;;;5017586;28;19917;-91
2023/06/04 19:57:15;;;;;;;;;;;;;;;;;;5017661;28;19910;-89
2023/06/04 19:59:40;;;;;;;;;;;;;;;;;;4999663;28;19925;-88
2023/06/04 20:02:06;;;;;;;;;;;;;;;;;;5017884;28;20000;-89
2023/06/04 20:04:32;;;;;;;;;;;;;;;;;;4999941;28;19979;-89
2023/06/04 20:06:58;;;;;;;;;;;;;;;;;;5017345;28;19913;-88
2023/06/04 20:09:24;;;;;;;;;;;;;;;;;;5017222;28;19914;-87
2023/06/04 20:11:49;;;;;;;;;;;;;;;;;;5017224;28;19993;-89
2023/06/04 20:14:15;;;;;;;;;;;;;;;;;;5017665;28;20390;-89
2023/06/04 20:16:40;;;;;;;;;;;;;;;;;;5017652;28;20347;-90
2023/06/04 20:19:05;;;;;;;;;;;;;;;;;;4999627;28;19914;-90
2023/06/04 20:21:31;;;;;;;;;;;;;;;;;;5000198;28;20322;-90
2023/06/04 20:23:57;;;;;;;;;;;;;;;;;;5017293;28;19916;-90
2023/06/04 20:26:22;;;;;;;;;;;;;;;;;;5016993;28;19918;-89
2023/06/04 20:28:52;;;;;;;;;;;;;;;;;;5016862;28;19921;-89
2023/06/04 20:31:17;;;;;;;;;;;;;;;;;;5016662;28;19917;-91
2023/06/04 20:33:44;;;;;;;;;;;;;;;;;;4998757;28;19914;-90
2023/06/04 20:36:09;;;;;;;;;;;;;;;;;;5016606;28;19968;-90
2023/06/04 20:38:35;;;;;;;;;;;;;;;;;;5016394;28;19913;-89
2023/06/04 20:41:00;;;;;;;;;;;;;;;;;;5016423;28;19913;-89
2023/06/04 20:43:25;;;;;;;;;;;;;;;;;;5016493;28;20323;-89
2023/06/04 20:45:53;;;;;;;;;;;;;;;;;;5017057;28;19914;-89
2023/06/04 20:48:19;;;;;;;;;;;;;;;;;;5016870;28;19924;-89
2023/06/04 20:50:44;;;;;;;;;;;;;;;;;;5016827;28;19913;-90
2023/06/04 20:53:09;;;;;;;;;;;;;;;;;;5016388;28;19996;-89
2023/06/04 20:55:35;;;;;;;;;;;;;;;;;;5016952;28;19913;-89
2023/06/04 20:58:00;;;;;;;;;;;;;;;;;;5016650;28;19920;-87
2023/06/04 21:00:26;;;;;;;;;;;;;;;;;;5016512;28;20447;-88
2023/06/04 21:02:52;;;;;;;;;;;;;;;;;;5016695;28;19920;-89
2023/06/04 21:05:17;;;;;;;;;;;;;;;;;;5016397;28;19913;-89
2023/06/04 21:07:42;;;;;;;;;;;;;;;;;;5016379;28;19975;-88
2023/06/04 21:10:08;;;;;;;;;;;;;;;;;;5016374;28;19944;-90
2023/06/04 21:12:33;;;;;;;;;;;;;;;;;;5016669;28;19952;-88
2023/06/04 21:14:59;;;;;;;;;;;;;;;;;;5017216;28;19913;-88
2023/06/04 21:17:24;;;;;;;;;;;;;;;;;;5018591;28;19913;-90
2023/06/04 21:19:50;;;;;;;;;;;;;;;;;;5018436;28;19920;-90
2023/06/04 21:22:15;;;;;;;;;;;;;;;;;;5018985;28;19920;-90
2023/06/04 21:24:43;;;;;;;;;;;;;;;;;;5018853;28;19913;-88
2023/06/04 21:29:43;;;;;;;;;;;;;;;;;;5613957;22;19922;-88
2023/06/04 21:32:09;;;;;;;;;;;;;;;;;;5015804;28;20426;-89
